sensor_id;sensor_type;location;lat;lon;timestamp;pressure;altitude;pressure_sealevel;temperature;humidity
76866;BME280;66647;52.124;5.416;2023-04-03T00:01:18;103222.34;;;3.20;68.96
76866;BME280;66647;52.124;5.416;2023-04-03T00:03:45;103221.53;;;3.20;70.09
76866;BME280;66647;52.124;5.416;2023-04-03T00:06:12;103228.22;;;3.17;69.58
76866;BME280;66647;52.124;5.416;2023-04-03T00:08:39;103235.72;;;3.15;69.15
76866;BME280;66647;52.124;5.416;2023-04-03T00:11:07;103233.44;;;3.12;69.69
76866;BME280;66647;52.124;5.416;2023-04-03T00:13:33;103235.75;;;3.09;69.08
76866;BME280;66647;52.124;5.416;2023-04-03T00:16:00;103234.53;;;3.04;70.04
76866;BME280;66647;52.124;5.416;2023-04-03T00:18:27;103232.03;;;3.03;69.78
76866;BME280;66647;52.124;5.416;2023-04-03T00:20:53;103234.13;;;3.01;70.37
76866;BME280;66647;52.124;5.416;2023-04-03T00:23:20;103234.56;;;2.98;70.32
76866;BME280;66647;52.124;5.416;2023-04-03T00:25:47;103233.09;;;2.95;70.37
76866;BME280;66647;52.124;5.416;2023-04-03T00:28:13;103236.84;;;2.94;70.19
76866;BME280;66647;52.124;5.416;2023-04-03T00:30:40;103238.16;;;2.92;70.60
76866;BME280;66647;52.124;5.416;2023-04-03T00:33:07;103236.69;;;2.89;70.82
76866;BME280;66647;52.124;5.416;2023-04-03T00:35:34;103232.53;;;2.87;70.31
76866;BME280;66647;52.124;5.416;2023-04-03T00:38:01;103241.72;;;2.86;70.70
76866;BME280;66647;52.124;5.416;2023-04-03T00:40:33;103235.88;;;2.82;71.62
76866;BME280;66647;52.124;5.416;2023-04-03T00:43:15;103237.16;;;2.80;71.53
76866;BME280;66647;52.124;5.416;2023-04-03T00:45:52;103246.31;;;2.79;71.17
76866;BME280;66647;52.124;5.416;2023-04-03T00:48:23;103258.41;;;2.76;71.35
76866;BME280;66647;52.124;5.416;2023-04-03T00:50:52;103247.78;;;2.75;71.69
76866;BME280;66647;52.124;5.416;2023-04-03T00:53:23;103253.44;;;2.73;71.98
76866;BME280;66647;52.124;5.416;2023-04-03T00:55:53;103254.69;;;2.70;72.40
76866;BME280;66647;52.124;5.416;2023-04-03T00:58:30;103253.44;;;2.66;72.24
76866;BME280;66647;52.124;5.416;2023-04-03T01:00:58;103258.44;;;2.63;72.35
76866;BME280;66647;52.124;5.416;2023-04-03T01:03:27;103259.28;;;2.63;71.99
76866;BME280;66647;52.124;5.416;2023-04-03T01:05:54;103263.03;;;2.62;72.50
76866;BME280;66647;52.124;5.416;2023-04-03T01:08:21;103260.78;;;2.59;73.33
76866;BME280;66647;52.124;5.416;2023-04-03T01:10:48;103252.03;;;2.57;73.07
76866;BME280;66647;52.124;5.416;2023-04-03T01:13:27;103258.72;;;2.55;73.37
76866;BME280;66647;52.124;5.416;2023-04-03T01:15:55;103253.94;;;2.50;73.02
76866;BME280;66647;52.124;5.416;2023-04-03T01:18:25;103263.31;;;2.48;73.60
76866;BME280;66647;52.124;5.416;2023-04-03T01:21:11;103265.38;;;2.46;74.06
76866;BME280;66647;52.124;5.416;2023-04-03T01:26:42;103260.59;;;2.41;74.45
76866;BME280;66647;52.124;5.416;2023-04-03T01:29:08;103263.09;;;2.36;73.94
76866;BME280;66647;52.124;5.416;2023-04-03T01:34:02;103261.03;;;2.31;74.90
76866;BME280;66647;52.124;5.416;2023-04-03T01:36:31;103252.28;;;2.29;74.65
76866;BME280;66647;52.124;5.416;2023-04-03T01:38:59;103260.41;;;2.29;74.39
76866;BME280;66647;52.124;5.416;2023-04-03T01:41:27;103260.63;;;2.28;74.59
76866;BME280;66647;52.124;5.416;2023-04-03T01:44:00;103250.25;;;2.25;74.42
76866;BME280;66647;52.124;5.416;2023-04-03T01:46:27;103255.03;;;2.23;74.76
76866;BME280;66647;52.124;5.416;2023-04-03T01:48:53;103253.56;;;2.20;74.89
76866;BME280;66647;52.124;5.416;2023-04-03T01:51:20;103253.16;;;2.17;75.72
76866;BME280;66647;52.124;5.416;2023-04-03T01:53:46;103260.66;;;2.15;75.71
76866;BME280;66647;52.124;5.416;2023-04-03T01:56:13;103252.53;;;2.15;75.52
76866;BME280;66647;52.124;5.416;2023-04-03T01:58:41;103256.06;;;2.09;76.33
76866;BME280;66647;52.124;5.416;2023-04-03T02:01:07;103254.63;;;2.06;76.45
76866;BME280;66647;52.124;5.416;2023-04-03T02:03:34;103256.69;;;2.04;76.14
76866;BME280;66647;52.124;5.416;2023-04-03T02:06:00;103262.53;;;2.01;76.38
76866;BME280;66647;52.124;5.416;2023-04-03T02:08:27;103268.16;;;1.99;76.30
76866;BME280;66647;52.124;5.416;2023-04-03T02:10:54;103267.31;;;1.99;76.54
76866;BME280;66647;52.124;5.416;2023-04-03T02:13:20;103272.31;;;1.95;76.76
76866;BME280;66647;52.124;5.416;2023-04-03T02:15:47;103276.09;;;1.94;76.53
76866;BME280;66647;52.124;5.416;2023-04-03T02:18:16;103284.41;;;1.93;77.26
76866;BME280;66647;52.124;5.416;2023-04-03T02:20:43;103284.00;;;1.89;77.32
76866;BME280;66647;52.124;5.416;2023-04-03T02:23:10;103282.94;;;1.90;77.08
76866;BME280;66647;52.124;5.416;2023-04-03T02:25:36;103287.72;;;1.88;77.24
76866;BME280;66647;52.124;5.416;2023-04-03T02:28:05;103280.22;;;1.84;78.31
76866;BME280;66647;52.124;5.416;2023-04-03T02:30:31;103282.09;;;1.83;77.65
76866;BME280;66647;52.124;5.416;2023-04-03T02:32:58;103281.47;;;1.81;78.61
76866;BME280;66647;52.124;5.416;2023-04-03T02:35:25;103280.44;;;1.76;78.03
76866;BME280;66647;52.124;5.416;2023-04-03T02:37:54;103273.75;;;1.72;78.58
76866;BME280;66647;52.124;5.416;2023-04-03T02:40:22;103284.59;;;1.72;78.52
76866;BME280;66647;52.124;5.416;2023-04-03T02:42:49;103285.63;;;1.71;78.48
76866;BME280;66647;52.124;5.416;2023-04-03T02:45:17;103285.81;;;1.69;79.22
76866;BME280;66647;52.124;5.416;2023-04-03T02:47:45;103287.06;;;1.66;78.68
76866;BME280;66647;52.124;5.416;2023-04-03T02:50:12;103289.34;;;1.63;79.43
76866;BME280;66647;52.124;5.416;2023-04-03T02:52:39;103295.19;;;1.60;79.45
76866;BME280;66647;52.124;5.416;2023-04-03T02:55:06;103297.28;;;1.58;79.29
76866;BME280;66647;52.124;5.416;2023-04-03T02:57:33;103301.84;;;1.57;79.12
76866;BME280;66647;52.124;5.416;2023-04-03T02:59:59;103300.38;;;1.55;79.12
76866;BME280;66647;52.124;5.416;2023-04-03T03:02:26;103303.09;;;1.55;79.27
76866;BME280;66647;52.124;5.416;2023-04-03T03:04:53;103304.31;;;1.52;80.23
76866;BME280;66647;52.124;5.416;2023-04-03T03:07:19;103305.13;;;1.46;79.91
76866;BME280;66647;52.124;5.416;2023-04-03T03:09:46;103311.78;;;1.44;80.15
76866;BME280;66647;52.124;5.416;2023-04-03T03:12:12;103314.28;;;1.45;80.58
76866;BME280;66647;52.124;5.416;2023-04-03T03:14:39;103313.03;;;1.41;80.78
76866;BME280;66647;52.124;5.416;2023-04-03T03:17:07;103319.03;;;1.37;80.59
76866;BME280;66647;52.124;5.416;2023-04-03T03:19:34;103318.81;;;1.31;81.43
76866;BME280;66647;52.124;5.416;2023-04-03T03:22:00;103322.78;;;1.29;81.38
76866;BME280;66647;52.124;5.416;2023-04-03T03:24:27;103317.38;;;1.29;81.40
76866;BME280;66647;52.124;5.416;2023-04-03T03:26:53;103317.97;;;1.24;81.61
76866;BME280;66647;52.124;5.416;2023-04-03T03:29:20;103314.00;;;1.20;82.22
76866;BME280;66647;52.124;5.416;2023-04-03T03:31:47;103315.03;;;1.19;82.03
76866;BME280;66647;52.124;5.416;2023-04-03T03:34:13;103316.47;;;1.15;82.17
76866;BME280;66647;52.124;5.416;2023-04-03T03:36:40;103317.50;;;1.14;82.37
76866;BME280;66647;52.124;5.416;2023-04-03T03:39:07;103317.91;;;1.11;81.98
76866;BME280;66647;52.124;5.416;2023-04-03T03:41:34;103323.31;;;1.11;82.98
76866;BME280;66647;52.124;5.416;2023-04-03T03:44:01;103312.91;;;1.08;82.42
76866;BME280;66647;52.124;5.416;2023-04-03T03:46:30;103322.44;;;1.04;83.07
76866;BME280;66647;52.124;5.416;2023-04-03T03:48:57;103317.44;;;1.01;82.62
76866;BME280;66647;52.124;5.416;2023-04-03T03:51:23;103316.63;;;1.00;83.05
76866;BME280;66647;52.124;5.416;2023-04-03T03:53:50;103318.69;;;0.98;82.89
76866;BME280;66647;52.124;5.416;2023-04-03T03:56:18;103322.66;;;0.96;83.14
76866;BME280;66647;52.124;5.416;2023-04-03T03:58:45;103333.25;;;0.97;83.25
76866;BME280;66647;52.124;5.416;2023-04-03T04:01:12;103319.94;;;0.96;83.32
76866;BME280;66647;52.124;5.416;2023-04-03T04:03:43;103332.81;;;0.94;83.74
76866;BME280;66647;52.124;5.416;2023-04-03T04:06:16;103321.78;;;0.89;83.36
76866;BME280;66647;52.124;5.416;2023-04-03T04:08:43;103322.81;;;0.88;83.40
76866;BME280;66647;52.124;5.416;2023-04-03T04:11:11;103327.38;;;0.87;83.77
76866;BME280;66647;52.124;5.416;2023-04-03T04:13:39;103326.75;;;0.85;83.63
76866;BME280;66647;52.124;5.416;2023-04-03T04:16:09;103324.88;;;0.86;83.53
76866;BME280;66647;52.124;5.416;2023-04-03T04:18:36;103341.06;;;0.86;83.90
76866;BME280;66647;52.124;5.416;2023-04-03T04:21:05;103337.75;;;0.84;83.86
76866;BME280;66647;52.124;5.416;2023-04-03T04:23:33;103340.84;;;0.81;83.77
76866;BME280;66647;52.124;5.416;2023-04-03T04:26:00;103339.16;;;0.80;83.92
76866;BME280;66647;52.124;5.416;2023-04-03T04:28:30;103338.53;;;0.78;83.69
76866;BME280;66647;52.124;5.416;2023-04-03T04:30:58;103338.09;;;0.74;83.97
76866;BME280;66647;52.124;5.416;2023-04-03T04:33:28;103336.81;;;0.70;83.92
76866;BME280;66647;52.124;5.416;2023-04-03T04:35:59;103343.25;;;0.69;84.21
76866;BME280;66647;52.124;5.416;2023-04-03T04:38:27;103339.72;;;0.68;84.35
76866;BME280;66647;52.124;5.416;2023-04-03T04:40:54;103338.03;;;0.67;84.50
76866;BME280;66647;52.124;5.416;2023-04-03T04:43:21;103336.38;;;0.66;84.73
76866;BME280;66647;52.124;5.416;2023-04-03T04:46:09;103343.63;;;0.66;84.81
76866;BME280;66647;52.124;5.416;2023-04-03T04:48:45;103353.84;;;0.64;84.88
76866;BME280;66647;52.124;5.416;2023-04-03T04:51:15;103347.59;;;0.63;85.10
76866;BME280;66647;52.124;5.416;2023-04-03T04:53:42;103358.59;;;0.62;84.84
76866;BME280;66647;52.124;5.416;2023-04-03T04:56:12;103356.72;;;0.62;85.04
76866;BME280;66647;52.124;5.416;2023-04-03T04:58:39;103349.66;;;0.61;84.84
76866;BME280;66647;52.124;5.416;2023-04-03T05:01:09;103354.22;;;0.61;84.82
76866;BME280;66647;52.124;5.416;2023-04-03T05:03:45;103347.34;;;0.58;85.42
76866;BME280;66647;52.124;5.416;2023-04-03T05:06:12;103351.09;;;0.57;85.06
76866;BME280;66647;52.124;5.416;2023-04-03T05:08:39;103348.38;;;0.57;85.25
76866;BME280;66647;52.124;5.416;2023-04-03T05:11:06;103353.78;;;0.57;85.31
76866;BME280;66647;52.124;5.416;2023-04-03T05:13:33;103351.47;;;0.54;85.32
76866;BME280;66647;52.124;5.416;2023-04-03T05:16:00;103357.06;;;0.53;85.52
76866;BME280;66647;52.124;5.416;2023-04-03T05:18:27;103353.72;;;0.51;85.51
76866;BME280;66647;52.124;5.416;2023-04-03T05:20:57;103356.44;;;0.51;85.34
76866;BME280;66647;52.124;5.416;2023-04-03T05:23:25;103360.16;;;0.50;85.43
76866;BME280;66647;52.124;5.416;2023-04-03T05:25:53;103363.69;;;0.50;85.32
76866;BME280;66647;52.124;5.416;2023-04-03T05:28:20;103358.28;;;0.50;85.34
76866;BME280;66647;52.124;5.416;2023-04-03T05:30:53;103367.22;;;0.51;85.07
76866;BME280;66647;52.124;5.416;2023-04-03T05:33:21;103370.75;;;0.51;85.35
76866;BME280;66647;52.124;5.416;2023-04-03T05:35:52;103371.59;;;0.52;85.67
76866;BME280;66647;52.124;5.416;2023-04-03T05:38:23;103372.44;;;0.52;85.29
76866;BME280;66647;52.124;5.416;2023-04-03T05:40:52;103372.44;;;0.52;85.30
76866;BME280;66647;52.124;5.416;2023-04-03T05:43:19;103371.41;;;0.53;85.03
76866;BME280;66647;52.124;5.416;2023-04-03T05:45:47;103384.50;;;0.56;84.94
76866;BME280;66647;52.124;5.416;2023-04-03T05:48:14;103379.75;;;0.58;84.69
76866;BME280;66647;52.124;5.416;2023-04-03T05:50:41;103381.41;;;0.59;84.96
76866;BME280;66647;52.124;5.416;2023-04-03T05:53:17;103384.56;;;0.63;84.80
76866;BME280;66647;52.124;5.416;2023-04-03T05:55:47;103384.38;;;0.64;84.92
76866;BME280;66647;52.124;5.416;2023-04-03T05:58:15;103389.53;;;0.66;84.55
76866;BME280;66647;52.124;5.416;2023-04-03T06:00:43;103390.97;;;0.90;85.14
76866;BME280;66647;52.124;5.416;2023-04-03T06:03:14;103391.41;;;2.15;82.00
76866;BME280;66647;52.124;5.416;2023-04-03T06:05:45;103393.81;;;3.02;79.15
76866;BME280;66647;52.124;5.416;2023-04-03T06:08:15;103390.69;;;2.99;77.50
76866;BME280;66647;52.124;5.416;2023-04-03T06:10:41;103389.66;;;3.00;78.13
76866;BME280;66647;52.124;5.416;2023-04-03T06:13:08;103391.09;;;3.02;76.19
76866;BME280;66647;52.124;5.416;2023-04-03T06:15:34;103403.25;;;2.60;77.39
76866;BME280;66647;52.124;5.416;2023-04-03T06:18:05;103406.59;;;2.62;77.48
76866;BME280;66647;52.124;5.416;2023-04-03T06:20:33;103398.91;;;2.59;77.15
76866;BME280;66647;52.124;5.416;2023-04-03T06:23:00;103403.03;;;2.68;77.24
76866;BME280;66647;52.124;5.416;2023-04-03T06:25:27;103405.34;;;2.72;77.17
76866;BME280;66647;52.124;5.416;2023-04-03T06:27:54;103403.41;;;3.05;76.73
76866;BME280;66647;52.124;5.416;2023-04-03T06:30:21;103403.94;;;3.27;76.21
76866;BME280;66647;52.124;5.416;2023-04-03T06:32:48;103395.66;;;3.60;75.25
76866;BME280;66647;52.124;5.416;2023-04-03T06:35:15;103396.31;;;3.93;71.37
76866;BME280;66647;52.124;5.416;2023-04-03T06:37:42;103409.09;;;3.48;73.20
76866;BME280;66647;52.124;5.416;2023-04-03T06:40:17;103407.94;;;3.24;75.04
76866;BME280;66647;52.124;5.416;2023-04-03T06:42:46;103410.84;;;3.74;72.76
76866;BME280;66647;52.124;5.416;2023-04-03T06:45:12;103414.41;;;3.68;72.91
76866;BME280;66647;52.124;5.416;2023-04-03T06:47:39;103417.91;;;3.30;73.55
76866;BME280;66647;52.124;5.416;2023-04-03T06:50:13;103428.41;;;3.07;74.29
76866;BME280;66647;52.124;5.416;2023-04-03T06:52:41;103417.56;;;3.07;74.41
76866;BME280;66647;52.124;5.416;2023-04-03T06:55:08;103427.16;;;3.16;73.78
76866;BME280;66647;52.124;5.416;2023-04-03T06:57:36;103432.56;;;3.16;74.45
76866;BME280;66647;52.124;5.416;2023-04-03T07:00:05;103436.31;;;3.15;73.90
76866;BME280;66647;52.124;5.416;2023-04-03T07:02:33;103435.84;;;3.31;73.08
76866;BME280;66647;52.124;5.416;2023-04-03T07:05:02;103436.09;;;3.75;72.63
76866;BME280;66647;52.124;5.416;2023-04-03T07:07:36;103440.78;;;4.55;70.33
76866;BME280;66647;52.124;5.416;2023-04-03T07:10:08;103439.06;;;4.86;69.35
76866;BME280;66647;52.124;5.416;2023-04-03T07:12:37;103445.13;;;5.24;68.47
76866;BME280;66647;52.124;5.416;2023-04-03T07:15:15;103452.41;;;5.30;66.81
76866;BME280;66647;52.124;5.416;2023-04-03T07:17:42;103443.22;;;5.61;66.65
76866;BME280;66647;52.124;5.416;2023-04-03T07:20:11;103438.72;;;6.45;63.68
76866;BME280;66647;52.124;5.416;2023-04-03T07:22:38;103429.28;;;7.58;60.22
76866;BME280;66647;52.124;5.416;2023-04-03T07:25:08;103442.03;;;6.59;60.72
76866;BME280;66647;52.124;5.416;2023-04-03T07:27:34;103450.69;;;6.02;62.84
76866;BME280;66647;52.124;5.416;2023-04-03T07:30:01;103451.78;;;5.65;63.05
76866;BME280;66647;52.124;5.416;2023-04-03T07:32:28;103463.75;;;5.46;64.24
76866;BME280;66647;52.124;5.416;2023-04-03T07:35:02;103457.06;;;5.78;63.81
76866;BME280;66647;52.124;5.416;2023-04-03T07:37:32;103451.06;;;6.48;60.34
76866;BME280;66647;52.124;5.416;2023-04-03T07:40:00;103453.28;;;7.84;58.24
76866;BME280;66647;52.124;5.416;2023-04-03T07:42:29;103452.28;;;8.81;56.43
76866;BME280;66647;52.124;5.416;2023-04-03T07:44:56;103452.19;;;8.92;53.25
76866;BME280;66647;52.124;5.416;2023-04-03T07:47:23;103456.25;;;8.90;52.73
76866;BME280;66647;52.124;5.416;2023-04-03T07:49:50;103459.66;;;8.63;53.69
76866;BME280;66647;52.124;5.416;2023-04-03T07:52:17;103454.84;;;8.54;52.36
76866;BME280;66647;52.124;5.416;2023-04-03T07:54:43;103456.88;;;9.14;52.07
76866;BME280;66647;52.124;5.416;2023-04-03T07:57:11;103461.94;;;9.43;51.25
76866;BME280;66647;52.124;5.416;2023-04-03T07:59:39;103462.19;;;9.20;51.08
76866;BME280;66647;52.124;5.416;2023-04-03T08:02:09;103462.59;;;9.12;51.30
76866;BME280;66647;52.124;5.416;2023-04-03T08:04:36;103461.50;;;9.30;51.68
76866;BME280;66647;52.124;5.416;2023-04-03T08:07:02;103455.69;;;10.19;48.04
76866;BME280;66647;52.124;5.416;2023-04-03T08:09:29;103455.00;;;10.97;45.33
76866;BME280;66647;52.124;5.416;2023-04-03T08:12:02;103463.91;;;11.15;44.39
76866;BME280;66647;52.124;5.416;2023-04-03T08:14:31;103464.19;;;11.18;43.88
76866;BME280;66647;52.124;5.416;2023-04-03T08:17:00;103468.78;;;10.65;43.69
76866;BME280;66647;52.124;5.416;2023-04-03T08:19:27;103476.63;;;10.25;44.47
76866;BME280;66647;52.124;5.416;2023-04-03T08:21:54;103465.41;;;10.26;43.20
76866;BME280;66647;52.124;5.416;2023-04-03T08:24:21;103476.09;;;10.55;44.22
76866;BME280;66647;52.124;5.416;2023-04-03T08:26:48;103478.13;;;11.06;43.38
76866;BME280;66647;52.124;5.416;2023-04-03T08:29:15;103480.44;;;11.77;41.22
76866;BME280;66647;52.124;5.416;2023-04-03T08:31:41;103477.84;;;12.28;41.66
76866;BME280;66647;52.124;5.416;2023-04-03T08:34:09;103483.38;;;12.84;39.64
76866;BME280;66647;52.124;5.416;2023-04-03T08:36:37;103470.97;;;12.56;37.56
76866;BME280;66647;52.124;5.416;2023-04-03T08:39:05;103477.59;;;12.90;37.00
76866;BME280;66647;52.124;5.416;2023-04-03T08:41:34;103482.25;;;12.74;35.42
76866;BME280;66647;52.124;5.416;2023-04-03T08:44:25;103489.97;;;12.57;35.57
76866;BME280;66647;52.124;5.416;2023-04-03T08:49:46;103483.91;;;12.81;35.19
76866;BME280;66647;52.124;5.416;2023-04-03T08:52:20;103484.91;;;13.56;35.77
76866;BME280;66647;52.124;5.416;2023-04-03T08:54:56;103483.88;;;13.01;31.43
76866;BME280;66647;52.124;5.416;2023-04-03T08:59:53;103494.34;;;12.38;30.95
76866;BME280;66647;52.124;5.416;2023-04-03T09:02:42;103486.13;;;12.89;32.13
76866;BME280;66647;52.124;5.416;2023-04-03T09:05:17;103474.81;;;12.75;30.54
76866;BME280;66647;52.124;5.416;2023-04-03T09:07:47;103474.81;;;12.95;29.34
76866;BME280;66647;52.124;5.416;2023-04-03T09:10:24;103470.41;;;12.69;30.13
76866;BME280;66647;52.124;5.416;2023-04-03T09:13:05;103476.75;;;12.79;30.06
76866;BME280;66647;52.124;5.416;2023-04-03T09:15:35;103489.97;;;12.88;28.69
76866;BME280;66647;52.124;5.416;2023-04-03T09:18:23;103479.19;;;13.01;26.84
76866;BME280;66647;52.124;5.416;2023-04-03T09:21:08;103480.31;;;12.70;27.41
76866;BME280;66647;52.124;5.416;2023-04-03T09:23:44;103482.25;;;12.44;28.61
76866;BME280;66647;52.124;5.416;2023-04-03T09:26:24;103496.81;;;12.19;27.63
76866;BME280;66647;52.124;5.416;2023-04-03T09:28:58;103481.69;;;12.37;27.88
76866;BME280;66647;52.124;5.416;2023-04-03T09:31:29;103478.13;;;12.87;26.35
76866;BME280;66647;52.124;5.416;2023-04-03T09:34:02;103466.81;;;13.04;26.21
76866;BME280;66647;52.124;5.416;2023-04-03T09:36:47;103475.66;;;12.96;25.49
76866;BME280;66647;52.124;5.416;2023-04-03T09:39:16;103463.00;;;12.64;27.50
76866;BME280;66647;52.124;5.416;2023-04-03T09:42:05;103467.41;;;12.60;24.35
76866;BME280;66647;52.124;5.416;2023-04-03T09:44:36;103465.75;;;12.64;27.35
76866;BME280;66647;52.124;5.416;2023-04-03T09:47:21;103457.09;;;13.37;26.66
76866;BME280;66647;52.124;5.416;2023-04-03T09:49:50;103448.41;;;13.69;25.00
76866;BME280;66647;52.124;5.416;2023-04-03T09:52:19;103472.13;;;13.75;23.40
76866;BME280;66647;52.124;5.416;2023-04-03T09:54:46;103461.47;;;13.48;25.51
76866;BME280;66647;52.124;5.416;2023-04-03T09:57:15;103457.88;;;13.53;24.88
76866;BME280;66647;52.124;5.416;2023-04-03T10:04:39;103439.25;;;13.04;23.03
76866;BME280;66647;52.124;5.416;2023-04-03T10:07:26;103442.63;;;12.55;23.61
76866;BME280;66647;52.124;5.416;2023-04-03T10:10:20;103439.56;;;12.92;24.44
76866;BME280;66647;52.124;5.416;2023-04-03T10:13:03;103439.84;;;12.86;23.57
76866;BME280;66647;52.124;5.416;2023-04-03T10:15:39;103435.13;;;13.01;24.58
76866;BME280;66647;52.124;5.416;2023-04-03T10:20:58;103432.09;;;13.08;23.31
76866;BME280;66647;52.124;5.416;2023-04-03T10:23:39;103424.56;;;13.44;24.70
76866;BME280;66647;52.124;5.416;2023-04-03T10:26:37;103425.19;;;13.05;23.13
76866;BME280;66647;52.124;5.416;2023-04-03T10:32:20;103404.88;;;13.66;23.57
76866;BME280;66647;52.124;5.416;2023-04-03T10:34:58;103412.34;;;14.04;24.01
76866;BME280;66647;52.124;5.416;2023-04-03T10:46:52;103388.97;;;14.65;23.61
76866;BME280;66647;52.124;5.416;2023-04-03T10:52:22;103382.03;;;14.67;24.30
76866;BME280;66647;52.124;5.416;2023-04-03T10:57:56;103393.63;;;15.41;22.38
76866;BME280;66647;52.124;5.416;2023-04-03T11:00:41;103387.19;;;15.03;22.71
76866;BME280;66647;52.124;5.416;2023-04-03T11:03:17;103378.00;;;15.07;22.28
76866;BME280;66647;52.124;5.416;2023-04-03T11:05:53;103368.44;;;15.00;23.24
76866;BME280;66647;52.124;5.416;2023-04-03T11:08:33;103365.00;;;15.32;25.99
76866;BME280;66647;52.124;5.416;2023-04-03T11:11:45;103384.13;;;15.04;22.38
76866;BME280;66647;52.124;5.416;2023-04-03T11:14:35;103354.94;;;14.69;24.98
76866;BME280;66647;52.124;5.416;2023-04-03T11:17:33;103370.13;;;14.72;24.97
76866;BME280;66647;52.124;5.416;2023-04-03T11:22:56;103374.66;;;14.29;24.94
76866;BME280;66647;52.124;5.416;2023-04-03T11:25:25;103373.44;;;14.40;23.93
76866;BME280;66647;52.124;5.416;2023-04-03T11:28:00;103360.94;;;14.19;24.01
76866;BME280;66647;52.124;5.416;2023-04-03T11:30:33;103370.91;;;14.15;23.79
76866;BME280;66647;52.124;5.416;2023-04-03T11:35:52;103362.34;;;14.50;24.49
76866;BME280;66647;52.124;5.416;2023-04-03T11:38:27;103366.16;;;14.54;23.47
76866;BME280;66647;52.124;5.416;2023-04-03T11:40:58;103366.16;;;14.54;24.78
76866;BME280;66647;52.124;5.416;2023-04-03T11:43:29;103360.50;;;14.35;25.48
76866;BME280;66647;52.124;5.416;2023-04-03T11:46:04;103355.09;;;14.59;24.61
76866;BME280;66647;52.124;5.416;2023-04-03T11:53:54;103353.00;;;14.46;23.79
76866;BME280;66647;52.124;5.416;2023-04-03T11:56:41;103353.59;;;14.38;25.33
76866;BME280;66647;52.124;5.416;2023-04-03T12:01:51;103359.22;;;13.44;24.53
76866;BME280;66647;52.124;5.416;2023-04-03T12:04:20;103337.75;;;13.41;24.42
76866;BME280;66647;52.124;5.416;2023-04-03T12:09:27;103342.94;;;13.53;25.27
76866;BME280;66647;52.124;5.416;2023-04-03T12:11:55;103333.88;;;13.42;25.82
76866;BME280;66647;52.124;5.416;2023-04-03T12:14:24;103327.91;;;13.30;26.31
76866;BME280;66647;52.124;5.416;2023-04-03T12:16:55;103332.91;;;13.08;26.92
76866;BME280;66647;52.124;5.416;2023-04-03T12:22:16;103321.72;;;12.89;26.09
76866;BME280;66647;52.124;5.416;2023-04-03T12:24:48;103326.41;;;12.78;26.96
76866;BME280;66647;52.124;5.416;2023-04-03T12:29:47;103324.00;;;12.57;27.79
76866;BME280;66647;52.124;5.416;2023-04-03T12:32:51;103315.47;;;12.63;27.78
76866;BME280;66647;52.124;5.416;2023-04-03T12:35:56;103309.16;;;12.37;26.53
76866;BME280;66647;52.124;5.416;2023-04-03T12:41:18;103298.19;;;12.22;27.32
76866;BME280;66647;52.124;5.416;2023-04-03T12:46:48;103286.03;;;12.49;28.21
76866;BME280;66647;52.124;5.416;2023-04-03T12:49:39;103285.19;;;12.63;28.37
76866;BME280;66647;52.124;5.416;2023-04-03T12:54:52;103277.13;;;12.82;28.32
76866;BME280;66647;52.124;5.416;2023-04-03T12:57:28;103274.94;;;12.74;28.62
76866;BME280;66647;52.124;5.416;2023-04-03T12:59:55;103264.47;;;12.71;27.82
76866;BME280;66647;52.124;5.416;2023-04-03T13:02:44;103252.97;;;12.64;28.06
76866;BME280;66647;52.124;5.416;2023-04-03T13:08:35;103264.31;;;12.37;28.51
76866;BME280;66647;52.124;5.416;2023-04-03T13:11:08;103253.88;;;12.34;28.71
76866;BME280;66647;52.124;5.416;2023-04-03T13:13:37;103262.44;;;12.07;27.91
76866;BME280;66647;52.124;5.416;2023-04-03T13:16:10;103261.38;;;11.98;29.47
76866;BME280;66647;52.124;5.416;2023-04-03T13:18:51;103258.59;;;12.08;29.70
76866;BME280;66647;52.124;5.416;2023-04-03T13:21:41;103250.59;;;12.27;29.01
76866;BME280;66647;52.124;5.416;2023-04-03T13:24:11;103255.03;;;11.97;29.73
76866;BME280;66647;52.124;5.416;2023-04-03T13:26:42;103243.22;;;11.97;30.18
76866;BME280;66647;52.124;5.416;2023-04-03T13:29:23;103245.13;;;12.01;29.58
76866;BME280;66647;52.124;5.416;2023-04-03T13:32:00;103238.50;;;12.07;28.63
76866;BME280;66647;52.124;5.416;2023-04-03T13:34:35;103242.34;;;12.06;29.81
76866;BME280;66647;52.124;5.416;2023-04-03T13:37:02;103231.91;;;12.14;29.45
76866;BME280;66647;52.124;5.416;2023-04-03T13:40:28;103242.34;;;12.22;30.23
76866;BME280;66647;52.124;5.416;2023-04-03T13:43:18;103258.03;;;12.06;30.34
76866;BME280;66647;52.124;5.416;2023-04-03T13:48:37;103253.38;;;11.66;30.37
76866;BME280;66647;52.124;5.416;2023-04-03T13:51:16;103252.00;;;11.84;30.16
76866;BME280;66647;52.124;5.416;2023-04-03T13:53:48;103234.13;;;11.96;30.30
76866;BME280;66647;52.124;5.416;2023-04-03T13:56:38;103256.66;;;12.08;30.49
76866;BME280;66647;52.124;5.416;2023-04-03T14:01:43;103249.78;;;11.60;29.56
76866;BME280;66647;52.124;5.416;2023-04-03T14:04:25;103243.16;;;11.51;30.34
76866;BME280;66647;52.124;5.416;2023-04-03T14:06:53;103239.59;;;11.56;30.26
76866;BME280;66647;52.124;5.416;2023-04-03T14:09:21;103232.19;;;11.61;31.15
76866;BME280;66647;52.124;5.416;2023-04-03T14:11:50;103239.63;;;11.61;31.04
76866;BME280;66647;52.124;5.416;2023-04-03T14:14:31;103232.75;;;11.63;30.73
76866;BME280;66647;52.124;5.416;2023-04-03T14:17:02;103217.09;;;11.69;30.48
76866;BME280;66647;52.124;5.416;2023-04-03T14:19:37;103225.88;;;11.66;29.53
76866;BME280;66647;52.124;5.416;2023-04-03T14:22:15;103217.34;;;11.57;29.78
76866;BME280;66647;52.124;5.416;2023-04-03T14:24:42;103211.84;;;11.42;30.82
76866;BME280;66647;52.124;5.416;2023-04-03T14:27:25;103207.19;;;11.53;32.83
76866;BME280;66647;52.124;5.416;2023-04-03T14:29:53;103200.03;;;11.47;32.04
76866;BME280;66647;52.124;5.416;2023-04-03T14:32:23;103205.25;;;11.43;30.88